Thursday, August 16, 2018, 5:56 AM GMT
Back to Local

CWSF, Cap Madeleine Meteorological Aeronautical Presentation System

Location: , , Canada Lat: 49.25
Local Time: 5:56 AM GMT ( 5:56 GMT) Lon: -65.333
Time Zone: GMT Elev: 95 ft

Show me the last for .
Show Coded

Time T Td Feel RH Dir Speed Gust Alt SLP Vis Weather Sky Remarks
2018-08-16 05:00 59 51 - 76 40° 1 - - 29.90 0 None
2018-08-16 04:00 59 51 - 74 - Calm - - 29.90 0 None
2018-08-16 03:00 59 53 - 78 120° 1 - - 29.89 0 None
2018-08-16 02:00 60 53 - 76 30° 8 - - 29.88 0 None
2018-08-16 01:00 63 54 - 73 20° 8 - - 29.85 0 None
2018-08-16 00:00 65 57 - 75 290° 10 18 - 29.80 0 Peak wind: 23 mph (20 kts) from 280° at 00 min
2018-08-15 23:00 66 56 - 70 280° 15 24 - 29.75 0 Peak wind: 24 mph (21 kts) from 260° at 57 min
2018-08-15 22:00 70 57 76 62 270° 10 - - 29.70 0 Peak wind: 25 mph (22 kts) from 270° at 06 min
2018-08-15 21:00 66 58 - 75 280° 15 21 - 29.70 0 Peak wind: 21 mph (19 kts) from 270° at 34 min
2018-08-15 20:00 67 58 - 72 280° 13 21 - 29.69 0 Peak wind: 26 mph (23 kts) from 270° at 13 min
2018-08-15 19:00 69 59 - 70 270° 20 25 - 29.67 0 Peak wind: 26 mph (23 kts) from 290° at 40 min
2018-08-15 18:00 65 60 - 82 280° 20 25 - 29.64 0 Peak wind: 27 mph (24 kts) from 290° at 10 min
2018-08-15 17:00 69 61 - 76 280° 21 26 - 29.64 0 Peak wind: 26 mph (23 kts) from 270° at 55 min
2018-08-15 16:00 68 62 - 80 270° 17 25 - 29.64 0 Peak wind: 25 mph (22 kts) from 290° at 50 min
2018-08-15 15:00 68 63 - 83 300° 9 - - 29.65 0 None
2018-08-15 14:00 66 61 - 83 320° 6 - - 29.64 0 None
2018-08-15 13:00 74 64 78 70 280° 9 - - 29.63 0 Peak wind: 19 mph (17 kts) from 210° at 03 min
2018-08-15 12:00 78 67 81 70 200° 8 20 - 29.63 0 Peak wind: 23 mph (20 kts) from 210° at 07 min
2018-08-15 11:00 77 67 80 71 200° 15 28 - 29.64 0 Peak wind: 27 mph (24 kts) from 200° at 47 min
2018-08-15 10:00 76 67 79 73 200° 14 24 - 29.62 0 Peak wind: 24 mph (21 kts) from 210° at 56 min
2018-08-15 09:00 76 66 79 73 190° 9 20 - 29.63 0 Peak wind: 25 mph (22 kts) from 190° at 31 min
2018-08-15 08:00 76 66 79 72 180° 15 23 - 29.64 0 Peak wind: 24 mph (21 kts) from 190° at 12 min
2018-08-15 07:00 75 66 78 72 180° 12 20 - 29.66 0 Peak wind: 26 mph (23 kts) from 200° at 14 min
2018-08-15 06:00 76 65 79 70 190° 14 23 - 29.67 0 Peak wind: 23 mph (20 kts) from 200° at 44 min

Support USWX by starting your Amazon purchase here.